createdAt,value
2023-05-12T00:00:26.503Z,1.14
2023-05-12T00:01:26.545Z,1.21
2023-05-12T00:02:26.691Z,1.03
2023-05-12T00:03:26.857Z,1.18
2023-05-12T00:04:26.751Z,1.06
2023-05-12T00:05:26.817Z,0.92
2023-05-12T00:06:26.856Z,0.96
2023-05-12T00:07:26.911Z,0.97
2023-05-12T00:08:26.971Z,0.97
2023-05-12T00:09:27.032Z,1.02
2023-05-12T00:10:27.086Z,0.79
2023-05-12T00:11:27.144Z,1.06
2023-05-12T00:12:27.195Z,1.18
2023-05-12T00:13:27.297Z,1.32
2023-05-12T00:14:27.306Z,1.15
2023-05-12T00:15:27.381Z,1.25
2023-05-12T00:16:27.461Z,0.81
2023-05-12T00:17:27.493Z,1.09
2023-05-12T00:18:27.565Z,1.10
2023-05-12T00:19:27.592Z,1.37
2023-05-12T00:20:27.661Z,1.11
2023-05-12T00:21:27.697Z,1.05
2023-05-12T00:22:27.764Z,0.96
2023-05-12T00:23:27.819Z,0.84
2023-05-12T00:24:27.877Z,1.01
2023-05-12T00:25:27.940Z,1.00
2023-05-12T00:26:27.990Z,1.09
2023-05-12T00:27:28.069Z,1.09
2023-05-12T00:28:28.166Z,0.99
2023-05-12T00:29:28.171Z,1.08
2023-05-12T00:30:28.233Z,1.08
2023-05-12T00:31:28.324Z,0.86
2023-05-12T00:32:28.350Z,0.88
2023-05-12T00:33:28.402Z,0.99
2023-05-12T00:34:28.471Z,1.32
2023-05-12T00:35:28.534Z,1.16
2023-05-12T00:36:28.594Z,0.95
2023-05-12T00:37:28.718Z,1.13
2023-05-12T00:38:28.705Z,1.14
2023-05-12T00:39:28.753Z,1.45
2023-05-12T00:40:28.829Z,1.08
2023-05-12T00:41:29.285Z,1.06
2023-05-12T00:42:28.941Z,0.93
2023-05-12T00:43:29.007Z,1.03
2023-05-12T00:44:29.070Z,0.85
2023-05-12T00:45:29.118Z,0.80
2023-05-12T00:46:29.300Z,0.64
2023-05-12T00:47:29.266Z,0.76
2023-05-12T00:48:29.322Z,0.94
2023-05-12T00:49:29.370Z,0.85
2023-05-12T00:50:29.432Z,0.93
2023-05-12T00:51:29.500Z,1.30
2023-05-12T00:52:29.568Z,0.93
2023-05-12T00:53:41.047Z,0.76
2023-05-12T00:54:30.596Z,1.03
2023-05-12T00:55:30.280Z,1.07
2023-05-12T00:56:29.590Z,0.67
2023-05-12T00:57:29.664Z,1.11
2023-05-12T00:58:29.568Z,0.74
2023-05-12T00:59:29.669Z,0.91
2023-05-12T01:00:29.593Z,0.81
2023-05-12T01:01:29.666Z,0.85
2023-05-12T01:02:29.680Z,1.20
2023-05-12T01:03:29.782Z,1.27
2023-05-12T01:04:29.633Z,0.80
2023-05-12T01:05:29.696Z,1.08
2023-05-12T01:06:29.763Z,0.65
2023-05-12T01:07:29.782Z,1.02
2023-05-12T01:08:29.847Z,0.72
2023-05-12T01:09:29.908Z,1.07
2023-05-12T01:10:30.781Z,0.97
2023-05-12T01:11:30.056Z,0.83
2023-05-12T01:12:30.211Z,0.78
2023-05-12T01:13:30.155Z,0.82
2023-05-12T01:14:30.207Z,1.05
2023-05-12T01:15:30.266Z,0.73
2023-05-12T01:16:30.461Z,1.01
2023-05-12T01:17:30.565Z,1.63
2023-05-12T01:18:30.593Z,0.76
2023-05-12T01:19:30.512Z,0.88
2023-05-12T01:20:30.559Z,0.69
2023-05-12T01:21:30.630Z,0.65
2023-05-12T01:22:30.755Z,1.07
2023-05-12T01:23:30.730Z,0.89
2023-05-12T01:24:30.788Z,1.20
2023-05-12T01:25:30.855Z,0.90
2023-05-12T01:26:30.943Z,0.71
2023-05-12T01:27:30.989Z,0.76
2023-05-12T01:28:31.047Z,1.02
2023-05-12T01:29:31.096Z,0.84
2023-05-12T01:30:31.154Z,1.16
2023-05-12T01:31:31.307Z,0.96
2023-05-12T01:32:31.334Z,0.92
2023-05-12T01:33:31.356Z,0.83
2023-05-12T01:34:31.416Z,0.79
2023-05-12T01:35:31.473Z,1.10
2023-05-12T01:36:31.524Z,0.56
2023-05-12T01:37:31.515Z,0.71
2023-05-12T01:38:31.562Z,0.80
2023-05-12T01:39:31.576Z,0.59
2023-05-12T01:40:31.645Z,0.90
2023-05-12T01:41:31.766Z,0.80
2023-05-12T01:42:31.762Z,0.80
2023-05-12T01:43:31.791Z,0.72
2023-05-12T01:44:31.825Z,0.78
2023-05-12T01:45:31.828Z,1.05
2023-05-12T01:46:31.905Z,0.83
2023-05-12T01:47:31.972Z,0.70
2023-05-12T01:48:31.993Z,0.59
2023-05-12T01:49:32.042Z,0.82
2023-05-12T01:50:32.094Z,0.62
2023-05-12T01:51:32.152Z,0.76
2023-05-12T01:52:32.204Z,1.00
2023-05-12T01:53:32.263Z,0.93
2023-05-12T01:54:32.335Z,0.83
2023-05-12T01:55:32.370Z,0.80
2023-05-12T01:56:32.415Z,0.92
2023-05-12T01:57:32.464Z,0.91
2023-05-12T01:58:32.500Z,0.82
2023-05-12T01:59:32.535Z,0.76
2023-05-12T02:00:32.601Z,0.70
2023-05-12T02:01:32.646Z,1.24
2023-05-12T02:02:32.729Z,0.70
2023-05-12T02:03:32.736Z,1.19
2023-05-12T02:04:32.698Z,0.89
2023-05-12T02:05:33.299Z,0.88
2023-05-12T02:06:32.800Z,0.86
2023-05-12T02:07:32.734Z,0.74
2023-05-12T02:08:32.731Z,0.81
2023-05-12T02:09:32.734Z,0.66
2023-05-12T02:10:32.750Z,0.98
2023-05-12T02:11:32.776Z,0.77
2023-05-12T02:12:32.798Z,1.05
2023-05-12T02:13:32.819Z,0.83
2023-05-12T02:14:32.886Z,0.77
2023-05-12T02:15:32.936Z,0.79
2023-05-12T02:16:33.032Z,1.18
2023-05-12T02:17:33.164Z,0.88
2023-05-12T02:18:33.157Z,0.81
2023-05-12T02:19:33.085Z,0.85
2023-05-12T02:20:33.093Z,0.82
2023-05-12T02:21:33.142Z,0.78
2023-05-12T02:22:33.135Z,0.59
2023-05-12T02:23:33.167Z,0.88
2023-05-12T02:24:33.180Z,0.85
2023-05-12T02:25:33.217Z,1.01
2023-05-12T02:26:33.270Z,0.77
2023-05-12T02:27:33.280Z,1.06
2023-05-12T02:28:33.318Z,0.81
2023-05-12T02:29:33.353Z,0.76
2023-05-12T02:30:33.368Z,0.71
2023-05-12T02:31:33.546Z,0.80
2023-05-12T02:32:33.486Z,1.14
2023-05-12T02:33:33.480Z,0.76
2023-05-12T02:34:33.525Z,0.99
2023-05-12T02:35:33.547Z,0.85
2023-05-12T02:36:33.562Z,0.83
2023-05-12T02:37:33.589Z,0.86
2023-05-12T02:38:33.637Z,0.80
2023-05-12T02:39:33.641Z,0.85
2023-05-12T02:40:33.683Z,0.87
2023-05-12T02:41:33.727Z,0.70
2023-05-12T02:42:33.745Z,0.81
2023-05-12T02:43:33.775Z,0.76
2023-05-12T02:44:33.788Z,0.97
2023-05-12T02:45:33.948Z,0.88
2023-05-12T02:46:33.839Z,0.64
2023-05-12T02:47:33.929Z,0.72
2023-05-12T02:48:33.914Z,0.58
2023-05-12T02:49:34.023Z,0.75
2023-05-12T02:50:34.005Z,0.90
2023-05-12T02:51:34.046Z,0.87
2023-05-12T02:52:34.082Z,0.91
2023-05-12T02:53:34.133Z,0.81
2023-05-12T02:54:34.129Z,0.88
2023-05-12T02:55:34.149Z,0.83
2023-05-12T02:56:34.189Z,0.77
2023-05-12T02:57:34.833Z,0.75
2023-05-12T02:58:34.836Z,0.60
2023-05-12T02:59:34.254Z,0.89
2023-05-12T03:00:34.283Z,1.24
2023-05-12T03:01:34.358Z,0.62
2023-05-12T03:02:34.386Z,1.20
2023-05-12T03:03:34.488Z,0.93
2023-05-12T03:04:34.342Z,0.65
2023-05-12T03:05:34.349Z,0.96
2023-05-12T03:06:34.374Z,1.21
2023-05-12T03:07:34.399Z,0.68
2023-05-12T03:08:34.503Z,0.74
2023-05-12T03:09:34.445Z,0.81
2023-05-12T03:10:34.494Z,0.64
2023-05-12T03:11:34.519Z,0.58
2023-05-12T03:12:34.528Z,0.79
2023-05-12T03:13:34.610Z,0.62
2023-05-12T03:14:34.552Z,0.48
2023-05-12T03:15:34.586Z,0.85
2023-05-12T03:16:34.643Z,1.06
2023-05-12T03:17:35.390Z,0.75
2023-05-12T03:18:34.827Z,0.50
2023-05-12T03:19:34.693Z,0.76
2023-05-12T03:20:34.719Z,0.70
2023-05-12T03:21:34.733Z,0.55
2023-05-12T03:22:34.730Z,0.70
2023-05-12T03:23:34.760Z,0.77
2023-05-12T03:24:34.755Z,0.83
2023-05-12T03:25:34.741Z,0.89
2023-05-12T03:26:34.848Z,0.83
2023-05-12T03:27:34.817Z,0.61
2023-05-12T03:28:34.900Z,0.63
2023-05-12T03:29:34.917Z,0.96
2023-05-12T03:30:34.905Z,1.00
2023-05-12T03:31:34.932Z,1.03
2023-05-12T03:32:34.962Z,0.97
2023-05-12T03:33:34.930Z,0.78
2023-05-12T03:34:34.964Z,0.62
2023-05-12T03:35:34.953Z,0.85
2023-05-12T03:36:34.959Z,0.73
2023-05-12T03:37:34.973Z,0.75
2023-05-12T03:38:34.974Z,0.61
2023-05-12T03:39:35.057Z,1.11
2023-05-12T03:40:35.039Z,0.97
2023-05-12T03:41:35.035Z,0.97
2023-05-12T03:42:35.029Z,0.76
2023-05-12T03:43:35.042Z,0.48
2023-05-12T03:44:35.051Z,0.56
2023-05-12T03:45:35.100Z,0.78
2023-05-12T03:46:35.148Z,0.76
2023-05-12T03:47:36.062Z,0.93
2023-05-12T03:48:35.084Z,0.87
2023-05-12T03:49:35.050Z,0.89
2023-05-12T03:50:35.039Z,0.69
2023-05-12T03:51:35.068Z,0.76
2023-05-12T03:52:35.059Z,0.64
2023-05-12T03:53:35.060Z,0.56
2023-05-12T03:54:36.565Z,0.80
2023-05-12T03:55:35.051Z,0.48
2023-05-12T03:56:35.041Z,0.97
2023-05-12T03:57:35.031Z,0.74
2023-05-12T03:58:35.029Z,0.99
2023-05-12T03:59:35.036Z,1.06
2023-05-12T04:00:35.263Z,0.59
2023-05-12T04:01:35.028Z,0.97
2023-05-12T04:02:35.146Z,1.01
2023-05-12T04:03:35.036Z,0.79
2023-05-12T04:04:34.984Z,1.04
2023-05-12T04:05:35.057Z,0.85
2023-05-12T04:06:34.978Z,0.86
2023-05-12T04:07:34.968Z,0.82
2023-05-12T04:08:34.970Z,0.78
2023-05-12T04:09:34.956Z,0.92
2023-05-12T04:10:34.947Z,0.75
2023-05-12T04:11:34.940Z,0.89
2023-05-12T04:12:34.963Z,0.90
2023-05-12T04:13:35.947Z,0.72
2023-05-12T04:14:42.175Z,0.79
2023-05-12T04:15:35.916Z,0.70
2023-05-12T04:16:34.945Z,0.68
2023-05-12T04:17:34.929Z,0.56
2023-05-12T04:18:34.929Z,0.81
2023-05-12T04:19:34.893Z,0.89
2023-05-12T04:20:34.882Z,0.88
2023-05-12T04:21:35.070Z,0.68
2023-05-12T04:22:34.874Z,0.66
2023-05-12T04:23:34.874Z,0.76
2023-05-12T04:24:34.854Z,0.69
2023-05-12T04:25:34.849Z,0.94
2023-05-12T04:26:34.847Z,0.57
2023-05-12T04:27:34.872Z,0.83
2023-05-12T04:28:34.829Z,0.55
2023-05-12T04:29:34.835Z,1.03
2023-05-12T04:30:34.818Z,0.81
2023-05-12T04:31:34.823Z,0.79
2023-05-12T04:32:34.861Z,0.55
2023-05-12T04:33:34.806Z,0.78
2023-05-12T04:34:34.824Z,0.66
2023-05-12T04:35:34.824Z,0.77
2023-05-12T04:36:34.853Z,0.53
2023-05-12T04:37:34.868Z,0.63
2023-05-12T04:38:34.925Z,1.09
2023-05-12T04:39:34.930Z,0.87
2023-05-12T04:40:35.300Z,0.80
2023-05-12T04:41:34.956Z,0.81
2023-05-12T04:42:34.965Z,0.78
2023-05-12T04:44:35.032Z,0.70
2023-05-12T04:45:34.959Z,0.63
2023-05-12T04:46:35.043Z,0.81
2023-05-12T04:47:34.990Z,0.58
2023-05-12T04:48:34.931Z,0.57
2023-05-12T04:49:34.941Z,0.88
2023-05-12T04:50:34.926Z,0.63
2023-05-12T04:51:34.934Z,0.78
2023-05-12T04:52:34.920Z,0.77
2023-05-12T04:53:34.906Z,0.87
2023-05-12T04:54:34.920Z,0.62
2023-05-12T04:55:34.906Z,0.59
2023-05-12T04:56:34.892Z,0.67
2023-05-12T04:57:34.916Z,0.53
2023-05-12T04:58:34.902Z,0.93
2023-05-12T04:59:34.895Z,0.83
2023-05-12T05:00:34.872Z,0.98
2023-05-12T05:01:34.958Z,0.65
2023-05-12T05:02:34.938Z,0.67
2023-05-12T05:03:34.923Z,0.63
2023-05-12T05:04:34.844Z,0.85
2023-05-12T05:05:34.864Z,0.68
2023-05-12T05:06:34.831Z,0.63
2023-05-12T05:07:34.842Z,0.90
2023-05-12T05:08:34.819Z,0.84
2023-05-12T05:09:36.441Z,0.75
2023-05-12T05:10:34.812Z,0.89
2023-05-12T05:11:34.808Z,0.83
2023-05-12T05:12:34.792Z,0.83
2023-05-12T05:13:34.795Z,0.66
2023-05-12T05:14:34.777Z,0.99
2023-05-12T05:15:34.791Z,0.71
2023-05-12T05:16:34.782Z,0.90
2023-05-12T05:17:34.806Z,0.86
2023-05-12T05:18:34.756Z,0.65
2023-05-12T05:19:45.839Z,1.70
2023-05-12T05:20:35.881Z,1.97
2023-05-12T05:21:34.721Z,2.35
2023-05-12T05:22:34.718Z,2.15
2023-05-12T05:23:34.784Z,2.55
2023-05-12T05:24:34.719Z,2.81
2023-05-12T05:25:34.712Z,2.45
2023-05-12T05:26:34.742Z,2.43
2023-05-12T05:27:34.689Z,2.20
2023-05-12T05:28:34.684Z,1.90
2023-05-12T05:29:34.671Z,2.03
2023-05-12T05:30:34.712Z,2.74
2023-05-12T05:31:34.683Z,1.89
2023-05-12T05:32:34.720Z,1.75
2023-05-12T05:33:34.657Z,2.23
2023-05-12T05:34:34.718Z,2.30
2023-05-12T05:35:34.736Z,1.60
2023-05-12T05:36:35.395Z,1.80
2023-05-12T05:37:34.828Z,1.71
2023-05-12T05:38:34.856Z,2.48
2023-05-12T05:39:34.869Z,1.32
2023-05-12T05:40:48.889Z,1.71
2023-05-12T05:41:35.974Z,1.60
2023-05-12T05:42:34.900Z,1.56
2023-05-12T05:43:34.880Z,1.61
2023-05-12T05:44:34.868Z,1.58
2023-05-12T05:45:34.944Z,2.28
2023-05-12T05:46:35.439Z,2.38
2023-05-12T05:47:34.868Z,1.90
2023-05-12T05:48:34.893Z,2.19
2023-05-12T05:49:34.836Z,1.84
2023-05-12T05:50:34.822Z,2.14
2023-05-12T05:51:34.828Z,1.72
2023-05-12T05:52:34.822Z,1.93
2023-05-12T05:53:34.812Z,1.83
2023-05-12T05:54:35.406Z,1.37
2023-05-12T05:55:34.786Z,1.74
2023-05-12T05:56:34.814Z,1.79
2023-05-12T05:57:34.797Z,1.79
2023-05-12T05:58:34.780Z,1.86
2023-05-12T05:59:34.768Z,1.59
2023-05-12T06:00:34.751Z,2.20
2023-05-12T06:01:34.794Z,3.35
2023-05-12T06:02:34.893Z,1.73
2023-05-12T06:03:34.848Z,1.85
2023-05-12T06:04:34.885Z,2.26
2023-05-12T06:05:34.932Z,1.89
2023-05-12T06:06:34.996Z,2.37
2023-05-12T06:07:35.044Z,1.94
2023-05-12T06:08:35.096Z,2.36
2023-05-12T06:09:35.157Z,2.51
2023-05-12T06:10:35.219Z,2.39
2023-05-12T06:11:35.281Z,1.90
2023-05-12T06:12:35.346Z,2.71
2023-05-12T06:13:35.375Z,2.48
2023-05-12T06:14:35.429Z,2.54
2023-05-12T06:15:35.475Z,2.01
2023-05-12T06:16:35.693Z,2.08
2023-05-12T06:17:36.465Z,2.95
2023-05-12T06:18:35.664Z,3.83
2023-05-12T06:19:35.655Z,2.75
2023-05-12T06:20:35.698Z,2.34
2023-05-12T06:21:35.732Z,3.14
2023-05-12T06:22:35.767Z,2.88
2023-05-12T06:23:35.857Z,3.62
2023-05-12T06:24:35.856Z,2.59
2023-05-12T06:25:35.915Z,2.26
2023-05-12T06:26:36.910Z,3.01
2023-05-12T06:27:35.908Z,2.77
2023-05-12T06:28:36.823Z,3.10
2023-05-12T06:29:36.094Z,2.54
2023-05-12T06:30:35.885Z,2.46
2023-05-12T06:31:35.881Z,3.12
2023-05-12T06:32:35.932Z,3.61
2023-05-12T06:33:36.411Z,2.67
2023-05-12T06:34:35.852Z,3.60
2023-05-12T06:35:35.879Z,2.83
2023-05-12T06:36:35.841Z,3.25
2023-05-12T06:37:35.842Z,2.79
2023-05-12T06:38:35.828Z,3.05
2023-05-12T06:39:35.823Z,3.41
2023-05-12T06:40:35.824Z,2.58
2023-05-12T06:41:35.852Z,2.62
2023-05-12T06:42:35.811Z,2.43
2023-05-12T06:43:35.798Z,2.72
2023-05-12T06:44:35.806Z,2.19
2023-05-12T06:45:35.812Z,2.27
2023-05-12T06:46:35.927Z,2.87
2023-05-12T06:47:35.878Z,2.19
2023-05-12T06:48:35.883Z,3.02
2023-05-12T06:49:35.887Z,2.28
2023-05-12T06:50:35.945Z,2.74
2023-05-12T06:51:36.921Z,2.31
2023-05-12T06:52:35.953Z,2.23
2023-05-12T06:53:35.973Z,1.97
2023-05-12T06:54:35.987Z,2.15
2023-05-12T06:55:36.006Z,2.53
2023-05-12T06:56:36.023Z,2.56
2023-05-12T06:57:36.038Z,2.27
2023-05-12T06:58:36.045Z,2.33
2023-05-12T06:59:36.073Z,2.15
2023-05-12T07:00:36.092Z,2.41
2023-05-12T07:01:36.185Z,2.40
2023-05-12T07:02:36.300Z,2.09
2023-05-12T07:03:36.137Z,3.12
2023-05-12T07:04:36.178Z,2.12
2023-05-12T07:05:36.223Z,2.36
2023-05-12T07:06:36.212Z,1.97
2023-05-12T07:07:36.294Z,2.18
2023-05-12T07:08:36.316Z,2.29
2023-05-12T07:09:36.370Z,2.02
2023-05-12T07:10:36.437Z,2.07
2023-05-12T07:11:36.497Z,1.80
2023-05-12T07:12:37.391Z,1.75
2023-05-12T07:13:36.585Z,2.10
2023-05-12T07:14:36.626Z,2.37
2023-05-12T07:15:36.669Z,1.73
2023-05-12T07:16:36.729Z,1.21
2023-05-12T07:17:36.819Z,1.93
2023-05-12T07:18:36.772Z,1.75
2023-05-12T07:19:36.786Z,1.97
2023-05-12T07:20:36.806Z,2.09
2023-05-12T07:21:36.852Z,1.93
2023-05-12T07:22:38.776Z,1.55
2023-05-12T07:23:36.879Z,1.72
2023-05-12T07:24:37.851Z,2.11
2023-05-12T07:25:36.947Z,1.63
2023-05-12T07:26:36.935Z,1.52
2023-05-12T07:27:36.938Z,1.73
2023-05-12T07:28:37.951Z,2.53
2023-05-12T07:29:36.956Z,2.17
2023-05-12T07:30:36.955Z,1.63
2023-05-12T07:31:37.002Z,1.38
2023-05-12T07:32:37.001Z,1.34
2023-05-12T07:33:36.973Z,1.85
2023-05-12T07:34:36.965Z,1.84
2023-05-12T07:35:36.993Z,1.91
2023-05-12T07:36:36.978Z,1.68
2023-05-12T07:37:36.972Z,1.66
2023-05-12T07:38:36.980Z,2.19
2023-05-12T07:39:37.015Z,1.48
2023-05-12T07:40:37.036Z,1.42
2023-05-12T07:41:37.148Z,1.82
2023-05-12T07:42:37.148Z,2.06
2023-05-12T07:43:37.203Z,2.20
2023-05-12T07:44:37.257Z,2.42
2023-05-12T07:45:37.324Z,1.96
2023-05-12T07:46:37.399Z,1.95
2023-05-12T07:47:37.460Z,1.87
2023-05-12T07:48:37.581Z,1.70
2023-05-12T07:49:37.564Z,2.24
2023-05-12T07:50:37.612Z,2.01
2023-05-12T07:51:37.722Z,2.31
2023-05-12T07:52:37.906Z,2.15
2023-05-12T07:53:38.449Z,1.75
2023-05-12T07:54:37.821Z,2.06
2023-05-12T07:55:37.869Z,2.37
2023-05-12T07:56:37.951Z,2.35
2023-05-12T07:57:37.989Z,2.87
2023-05-12T07:58:38.868Z,2.35
2023-05-12T07:59:38.073Z,1.78
2023-05-12T08:00:38.111Z,2.77
2023-05-12T08:01:38.199Z,2.56
2023-05-12T08:02:38.272Z,2.38
2023-05-12T08:03:38.305Z,2.67
2023-05-12T08:04:38.324Z,2.73
2023-05-12T08:05:38.333Z,2.25
2023-05-12T08:06:38.357Z,2.47
2023-05-12T08:07:38.400Z,2.17
2023-05-12T08:08:38.439Z,2.27
2023-05-12T08:09:38.455Z,2.45
2023-05-12T08:10:39.446Z,2.52
2023-05-12T08:11:38.525Z,2.75
2023-05-12T08:12:38.566Z,2.51
2023-05-12T08:13:38.598Z,3.01
2023-05-12T08:14:38.627Z,2.65
2023-05-12T08:15:38.799Z,2.18
2023-05-12T08:16:38.743Z,1.93
2023-05-12T08:17:38.841Z,2.06
2023-05-12T08:18:38.850Z,2.34
2023-05-12T08:19:38.883Z,2.26
2023-05-12T08:20:38.945Z,2.63
2023-05-12T08:21:39.058Z,2.42
2023-05-12T08:22:39.001Z,2.68
2023-05-12T08:23:38.958Z,2.84
2023-05-12T08:24:38.963Z,2.74
2023-05-12T08:25:38.969Z,3.02
2023-05-12T08:26:38.990Z,2.65
2023-05-12T08:27:39.005Z,2.20
2023-05-12T08:28:40.065Z,2.00
2023-05-12T08:29:39.049Z,2.88
2023-05-12T08:30:39.143Z,2.22
2023-05-12T08:31:39.249Z,1.92
2023-05-12T08:32:39.271Z,2.07
2023-05-12T08:33:39.246Z,2.02
2023-05-12T08:34:39.390Z,2.44
2023-05-12T08:35:39.356Z,2.14
2023-05-12T08:36:39.412Z,2.17
2023-05-12T08:37:39.527Z,1.79
2023-05-12T08:38:39.450Z,1.80
2023-05-12T08:39:39.587Z,1.61
2023-05-12T08:40:39.560Z,1.69
2023-05-12T08:41:39.623Z,1.87
2023-05-12T08:42:39.671Z,1.99
2023-05-12T08:43:39.716Z,1.75
2023-05-12T08:44:39.754Z,2.52
2023-05-12T08:45:39.778Z,1.88
2023-05-12T08:46:39.873Z,1.83
2023-05-12T08:47:39.884Z,2.25
2023-05-12T08:48:39.869Z,1.73
2023-05-12T08:49:39.847Z,2.30
2023-05-12T08:50:39.843Z,2.16
2023-05-12T08:51:39.865Z,2.45
2023-05-12T08:52:39.911Z,3.00
2023-05-12T08:53:40.105Z,2.41
2023-05-12T08:54:48.648Z,2.39
2023-05-12T08:55:40.962Z,2.57
2023-05-12T08:57:40.028Z,2.14
2023-05-12T08:58:41.939Z,1.90
2023-05-12T08:59:40.018Z,2.62
2023-05-12T09:00:40.035Z,3.01
2023-05-12T09:01:40.099Z,3.18
2023-05-12T09:02:51.984Z,2.53
2023-05-12T09:03:41.149Z,3.04
2023-05-12T09:04:40.127Z,3.44
2023-05-12T09:05:40.085Z,2.70
2023-05-12T09:06:41.019Z,2.62
2023-05-12T09:07:40.057Z,2.79
2023-05-12T09:08:40.062Z,2.22
2023-05-12T09:09:40.064Z,2.20
2023-05-12T09:10:40.089Z,2.17
2023-05-12T09:11:40.037Z,1.73
2023-05-12T09:12:40.032Z,2.16
2023-05-12T09:13:40.046Z,1.90
2023-05-12T09:14:40.064Z,1.74
2023-05-12T09:15:40.116Z,1.86
2023-05-12T09:16:40.235Z,1.87
2023-05-12T09:17:40.197Z,1.69
2023-05-12T09:18:40.246Z,1.87
2023-05-12T09:19:40.241Z,2.03
2023-05-12T09:20:40.237Z,1.97
2023-05-12T09:21:40.267Z,1.88
2023-05-12T09:22:40.279Z,1.48
2023-05-12T09:23:40.302Z,1.93
2023-05-12T09:24:40.359Z,1.60
2023-05-12T09:25:40.354Z,1.71
2023-05-12T09:26:40.441Z,1.50
2023-05-12T09:27:40.450Z,1.84
2023-05-12T09:28:40.495Z,2.03
2023-05-12T09:29:51.533Z,1.82
2023-05-12T09:30:41.470Z,1.79
2023-05-12T09:31:41.435Z,1.84
2023-05-12T09:32:40.481Z,1.66
2023-05-12T09:33:40.454Z,1.46
2023-05-12T09:34:40.462Z,1.69
2023-05-12T09:35:40.443Z,1.75
2023-05-12T09:36:40.426Z,1.37
2023-05-12T09:37:40.436Z,1.52
2023-05-12T09:38:40.421Z,1.29
2023-05-12T09:39:40.450Z,1.44
2023-05-12T09:40:40.509Z,1.55
2023-05-12T09:41:40.399Z,1.66
2023-05-12T09:42:40.396Z,1.64
2023-05-12T09:43:40.470Z,1.57
2023-05-12T09:44:40.371Z,1.75
2023-05-12T09:45:41.398Z,1.39
2023-05-12T09:46:40.371Z,1.74
2023-05-12T09:47:40.394Z,1.94
2023-05-12T09:48:40.359Z,1.56
2023-05-12T09:49:40.346Z,1.39
2023-05-12T09:50:47.234Z,1.26
2023-05-12T09:51:41.332Z,1.48
2023-05-12T09:52:40.320Z,1.39
2023-05-12T09:53:40.315Z,2.00
2023-05-12T09:54:40.322Z,1.37
2023-05-12T09:55:40.297Z,1.56
2023-05-12T09:56:40.288Z,1.30
2023-05-12T09:57:40.277Z,1.59
2023-05-12T09:58:40.280Z,1.61
2023-05-12T09:59:42.393Z,1.71
2023-05-12T10:01:02.366Z,1.22
2023-05-12T10:01:41.305Z,1.57
2023-05-12T10:02:40.300Z,1.15
2023-05-12T10:03:40.243Z,1.47
2023-05-12T10:04:40.291Z,1.52
2023-05-12T10:05:40.229Z,1.11
2023-05-12T10:06:40.213Z,1.43
2023-05-12T10:07:40.216Z,1.49
2023-05-12T10:08:40.209Z,0.97
2023-05-12T10:09:40.203Z,1.71
2023-05-12T10:10:40.195Z,1.22
2023-05-12T10:11:40.191Z,1.44
2023-05-12T10:12:40.189Z,1.76
2023-05-12T10:13:40.537Z,1.64
2023-05-12T10:14:40.930Z,1.95
2023-05-12T10:15:40.336Z,1.74
2023-05-12T10:16:40.416Z,2.02
2023-05-12T10:17:41.060Z,1.87
2023-05-12T10:18:40.515Z,2.10
2023-05-12T10:19:40.538Z,1.90
2023-05-12T10:20:40.573Z,1.35
2023-05-12T10:21:40.622Z,1.34
2023-05-12T10:22:40.660Z,1.44
2023-05-12T10:23:40.855Z,1.13
2023-05-12T10:24:40.747Z,1.86
2023-05-12T10:25:40.777Z,1.50
2023-05-12T10:26:40.915Z,1.28
2023-05-12T10:27:40.855Z,1.60
2023-05-12T10:28:40.893Z,1.33
2023-05-12T10:29:41.178Z,1.29
2023-05-12T10:30:40.958Z,1.28
2023-05-12T10:31:41.020Z,1.15
2023-05-12T10:32:41.087Z,1.57
2023-05-12T10:33:41.090Z,1.43
2023-05-12T10:34:41.139Z,1.82
2023-05-12T10:35:42.015Z,1.33
2023-05-12T10:36:41.208Z,1.50
2023-05-12T10:37:41.247Z,1.38
2023-05-12T10:38:41.289Z,1.43
2023-05-12T10:39:41.336Z,1.81
2023-05-12T10:40:41.364Z,1.11
2023-05-12T10:41:41.394Z,1.31
2023-05-12T10:42:41.527Z,1.33
2023-05-12T10:43:41.610Z,1.62
2023-05-12T10:44:41.603Z,1.31
2023-05-12T10:45:41.682Z,1.60
2023-05-12T10:46:41.690Z,1.31
2023-05-12T10:47:41.738Z,1.24
2023-05-12T10:48:41.714Z,0.98
2023-05-12T10:49:41.886Z,1.27
2023-05-12T10:50:41.844Z,1.52
2023-05-12T10:51:41.902Z,1.14
2023-05-12T10:52:41.945Z,1.26
2023-05-12T10:53:50.264Z,1.25
2023-05-12T10:54:42.987Z,1.19
2023-05-12T10:55:42.268Z,1.49
2023-05-12T10:56:42.256Z,1.40
2023-05-12T10:57:42.337Z,1.48
2023-05-12T10:58:42.196Z,1.79
2023-05-12T10:59:42.497Z,1.18
2023-05-12T11:00:42.234Z,1.39
2023-05-12T11:01:43.005Z,1.42
2023-05-12T11:02:42.806Z,1.58
2023-05-12T11:03:42.525Z,2.26
2023-05-12T11:04:42.191Z,2.21
2023-05-12T11:05:42.471Z,2.75
2023-05-12T11:06:42.999Z,2.81
2023-05-12T11:07:42.238Z,2.30
2023-05-12T11:08:42.333Z,2.29
2023-05-12T11:09:50.719Z,2.48
2023-05-12T11:10:43.017Z,2.84
2023-05-12T11:11:43.470Z,2.98
2023-05-12T11:12:41.979Z,2.48
2023-05-12T11:13:41.989Z,2.49
2023-05-12T11:14:41.971Z,2.45
2023-05-12T11:15:41.961Z,2.29
2023-05-12T11:16:42.560Z,2.84
2023-05-12T11:17:42.069Z,2.28
2023-05-12T11:18:41.982Z,3.81
2023-05-12T11:19:41.928Z,3.11
2023-05-12T11:20:41.959Z,1.87
2023-05-12T11:21:41.955Z,2.89
2023-05-12T11:22:41.927Z,2.28
2023-05-12T11:23:41.926Z,2.47
2023-05-12T11:24:41.938Z,2.38
2023-05-12T11:25:44.158Z,2.75
2023-05-12T11:26:42.067Z,1.94
2023-05-12T11:27:42.034Z,2.59
2023-05-12T11:28:42.070Z,3.33
2023-05-12T11:29:42.538Z,3.17
2023-05-12T11:30:41.999Z,3.08
2023-05-12T11:31:42.043Z,2.89
2023-05-12T11:32:41.959Z,2.81
2023-05-12T11:33:42.034Z,1.92
2023-05-12T11:34:41.943Z,2.69
2023-05-12T11:35:41.963Z,2.39
2023-05-12T11:36:41.951Z,2.79
2023-05-12T11:37:42.037Z,2.13
2023-05-12T11:38:41.969Z,2.81
2023-05-12T11:39:42.011Z,4.95
2023-05-12T11:40:41.966Z,2.39
2023-05-12T11:41:41.982Z,2.32
2023-05-12T11:42:41.981Z,2.78
2023-05-12T11:43:41.979Z,2.60
2023-05-12T11:44:41.998Z,2.40
2023-05-12T11:45:42.051Z,2.52
2023-05-12T11:46:41.996Z,2.27
2023-05-12T11:47:42.039Z,2.29
2023-05-12T11:48:42.028Z,2.59
2023-05-12T11:49:42.145Z,2.15
2023-05-12T11:50:42.059Z,2.29
2023-05-12T11:51:42.074Z,1.91
2023-05-12T11:52:42.115Z,2.09
2023-05-12T11:53:42.141Z,1.90
2023-05-12T11:54:42.197Z,1.67
2023-05-12T11:55:42.199Z,1.84
2023-05-12T11:56:42.143Z,2.08
2023-05-12T11:57:42.206Z,1.65
2023-05-12T11:58:42.321Z,1.91
2023-05-12T11:59:42.269Z,1.75
2023-05-12T12:00:42.205Z,2.11
2023-05-12T12:01:42.212Z,1.93
2023-05-12T12:02:42.351Z,1.48
2023-05-12T12:03:42.441Z,2.31
2023-05-12T12:04:42.401Z,1.57
2023-05-12T12:05:42.386Z,1.78
2023-05-12T12:06:42.353Z,2.22
2023-05-12T12:07:42.390Z,2.04
2023-05-12T12:08:42.373Z,1.95
2023-05-12T12:09:42.366Z,1.84
2023-05-12T12:10:42.385Z,2.23
2023-05-12T12:11:42.404Z,1.92
2023-05-12T12:12:42.472Z,1.44
2023-05-12T12:13:42.447Z,1.95
2023-05-12T12:14:42.495Z,1.60
2023-05-12T12:15:42.537Z,1.71
2023-05-12T12:16:42.521Z,2.46
2023-05-12T12:17:42.619Z,1.99
2023-05-12T12:18:42.579Z,1.70
2023-05-12T12:19:42.596Z,1.65
2023-05-12T12:20:42.602Z,1.51
2023-05-12T12:21:42.652Z,2.57
2023-05-12T12:22:42.656Z,1.96
2023-05-12T12:23:50.949Z,2.73
2023-05-12T12:24:43.673Z,1.46
2023-05-12T12:25:42.670Z,1.93
2023-05-12T12:26:42.662Z,1.78
2023-05-12T12:27:42.652Z,1.92
2023-05-12T12:28:42.639Z,2.18
2023-05-12T12:29:42.664Z,2.09
2023-05-12T12:30:42.630Z,1.85
2023-05-12T12:31:42.701Z,1.77
2023-05-12T12:32:42.796Z,1.47
2023-05-12T12:33:42.606Z,1.82
2023-05-12T12:34:42.613Z,1.50
2023-05-12T12:35:42.687Z,1.66
2023-05-12T12:36:42.605Z,1.82
2023-05-12T12:37:42.718Z,1.58
2023-05-12T12:38:42.663Z,2.23
2023-05-12T12:39:42.660Z,1.91
2023-05-12T12:40:43.075Z,2.14
2023-05-12T12:41:42.550Z,1.74
2023-05-12T12:42:43.068Z,1.71
2023-05-12T12:43:42.662Z,1.61
2023-05-12T12:44:42.619Z,1.53
2023-05-12T12:45:42.706Z,1.54
2023-05-12T12:46:42.734Z,1.63
2023-05-12T12:47:42.711Z,1.68
2023-05-12T12:48:42.727Z,1.39
2023-05-12T12:49:42.777Z,1.75
2023-05-12T12:50:42.821Z,1.94
2023-05-12T12:51:46.291Z,1.70
2023-05-12T12:52:43.569Z,1.56
2023-05-12T12:53:42.843Z,1.75
2023-05-12T12:54:43.080Z,1.51
2023-05-12T12:55:42.841Z,3.97
2023-05-12T12:56:42.842Z,1.69
2023-05-12T12:57:42.826Z,1.53
2023-05-12T12:58:42.830Z,1.56
2023-05-12T12:59:42.905Z,1.64
2023-05-12T13:00:42.828Z,1.56
2023-05-12T13:01:42.940Z,1.68
2023-05-12T13:02:42.911Z,1.53
2023-05-12T13:03:42.856Z,1.46
2023-05-12T13:04:42.785Z,1.45
2023-05-12T13:05:42.841Z,1.49
2023-05-12T13:06:42.879Z,1.49
2023-05-12T13:07:42.847Z,1.40
2023-05-12T13:08:42.743Z,1.45
2023-05-12T13:09:42.850Z,1.60
2023-05-12T13:10:42.736Z,1.27
2023-05-12T13:11:42.717Z,1.65
2023-05-12T13:12:42.717Z,1.77
2023-05-12T13:13:42.723Z,1.39
2023-05-12T13:14:42.720Z,1.86
2023-05-12T13:15:42.699Z,1.22
2023-05-12T13:16:42.851Z,1.73
2023-05-12T13:17:42.715Z,1.51
2023-05-12T13:18:42.814Z,1.95
2023-05-12T13:19:42.809Z,1.50
2023-05-12T13:20:42.929Z,1.08